Terminal Aerodrome Forecast
Issued by NWS

Home | Current Version | Previous Version | Text Only | Print | Product List | Glossary On
Versions: 1 2 3 4 5 6 7 8 9 10 11 12 13 14 15 16 17 18
000
FTUS43 KMQT 261700
TAFSAW
TAF
KSAW 261737Z 2618/2718 30007KT P6SM -SHRA BKN040
     FM261930 34007KT P6SM SCT045
     FM270100 04003KT P6SM FEW130
     FM270600 00000KT 3SM -SHRA BR BKN060
     FM271000 00000KT 3SM -SHRA BR OVC010
     FM271700 02006KT 5SM -SHRA OVC015
      AMD LTD TO CLD VIS AND WIND 2702/2710=

USA.gov is the U.S. government's official web portal to all federal, state and local government web resources and services.